• Join FlightAware (Why Join?)
  • Login
  • US Flag 
10:52PM EDT


 

Airport Tracker/Info


-or-


 

Live Flight TrackerFlight Track Log ✈ CES5390 ✈ 24-Jul-2014 ✈ ZHLY / LYA - ZSSS / SHA

Flight Track Log - Related Links

Times and Time Zones

All times are in EDT time to prevent confusion due to time zone crossing. See the CES5390 flight status page for this flight to view local times or setup timezone preferences in your user account.

Time Position Orientation Groundspeed Altitude Reporting Facility
EDT Latitude Longitude Course Direction KTS MPH feet Rate Location/Type
10:14PM 34.0584 114.3075 113° Southeast  Level Estimated
10:15PM 34.0147 114.4264 114° Southeast  Level Estimated
10:16PM 33.9709 114.5452 114° Southeast  Level Estimated
10:17PM 33.9271 114.6639 114° Southeast  Level Estimated
10:18PM 33.8830 114.7824 114° Southeast  Level Estimated
10:19PM 33.8389 114.9008 114° Southeast  Level Estimated
10:20PM 33.7947 115.0191 114° Southeast  Level Estimated
10:21PM 33.7504 115.1373 114° Southeast  Level Estimated
10:22PM 33.7059 115.2553 114° Southeast  Level Estimated
10:23PM 33.6614 115.3733 114° Southeast  Level Estimated
10:24PM 33.6167 115.4911 114° Southeast  Level Estimated
10:25PM 33.5719 115.6088 115° Southeast  Level Estimated
10:26PM 33.5270 115.7263 115° Southeast  Level Estimated
10:27PM 33.4820 115.8438 115° Southeast  Level Estimated
10:28PM 33.4369 115.9611 115° Southeast  Level Estimated
10:29PM 33.3916 116.0783 115° Southeast  Level Estimated
10:30PM 33.3463 116.1954 115° Southeast  Level Estimated
10:31PM 33.3008 116.3123 115° Southeast  Level Estimated
10:32PM 33.2553 116.4291 115° Southeast  Level Estimated
10:33PM 33.2096 116.5458 115° Southeast  Level Estimated
10:34PM 33.1638 116.6624 115° Southeast  Level Estimated
10:35PM 33.1179 116.7789 115° Southeast  Level Estimated
10:36PM 33.0719 116.8952 115° Southeast  Level Estimated
10:37PM 33.0258 117.0115 115° Southeast  Level Estimated
10:38PM 32.9796 117.1275 115° Southeast  Level Estimated
10:39PM 32.9333 117.2435 115° Southeast  Level Estimated
10:40PM 32.8869 117.3594 115° Southeast  Level Estimated
10:41PM 32.8404 117.4751 116° Southeast  Level Estimated
10:42PM 32.7937 117.5907 116° Southeast  Level Estimated
10:43PM 32.7470 117.7062 116° Southeast  Level Estimated
10:44PM 32.7001 117.8216 116° Southeast  Level Estimated
10:45PM 32.6532 117.9369 116° Southeast  Level Estimated
10:46PM 32.6061 118.0520 116° Southeast  Level Estimated
10:47PM 32.5589 118.1670 116° Southeast  Level Estimated
10:48PM 32.5117 118.2819 116° Southeast  Level Estimated
10:49PM 32.4643 118.3966 116° Southeast  Level Estimated
10:50PM 32.4168 118.5113 116° Southeast  Level Estimated
10:51PM 32.3692 118.6258 116° Southeast  Level Estimated
10:52PM 32.3216 118.7402 116° Southeast  Level Estimated
10:53PM 32.2738 118.8545 116° Southeast  Level Estimated
10:54PM 32.2259 118.9687 116° Southeast  Level Estimated
10:55PM 32.1779 119.0827 116° Southeast  Level Estimated
10:56PM 32.1298 119.1966 116° Southeast  Level Estimated
10:57PM 32.0816 119.3104 117° Southeast  Level Estimated
10:58PM 32.0333 119.4241 117° Southeast  Level Estimated
10:59PM 31.9849 119.5377 117° Southeast  Level Estimated
11:00PM 31.9364 119.6511 117° Southeast  Level Estimated
11:01PM 31.8878 119.7644 117° Southeast  Level Estimated
11:02PM 31.8391 119.8776 117° Southeast  Level Estimated
11:03PM 31.7903 119.9907 117° Southeast  Level Estimated
11:04PM 31.7414 120.1037 117° Southeast  Level Estimated
11:05PM 31.6924 120.2165 117° Southeast  Level Estimated
11:06PM 31.6433 120.3292 117° Southeast  Level Estimated
11:07PM 31.5941 120.4418 117° Southeast  Level Estimated
11:08PM 31.5448 120.5543 117° Southeast  Level Estimated
11:09PM 31.4954 120.6667 117° Southeast  Level Estimated
11:10PM 31.4459 120.7789 117° Southeast  Level Estimated
11:11PM 31.3963 120.8911 117° Southeast  Level Estimated
11:12PM 31.3466 121.0031 117° Southeast  Level Estimated
11:13PM 31.2968 121.1150 117° Southeast  Level Estimated
11:14PM 31.2469 121.2268 118° Southeast  Level Estimated
11:15PM 31.1979 121.3363 118° Southeast  Level Estimated
11:16PM 31.1979 121.3363 North  Level Estimated
11:17PM 31.1979 121.3363 North  Level Estimated
11:18PM 31.1979 121.3363 North  Level Estimated
11:19PM 31.1979 121.3363 North  Level Estimated
11:19PM 31.4212 121.0527 65° Northeast 208 239 5,700  Level FlightAware ADS-B (ZSSS / SHA)
11:19PM 31.4268 121.0666 64° Northeast 211 243 5,400 -540 Descending FlightAware ADS-B (ZSSS / SHA)
11:26PM 31.3077 121.3304 177° South 159 183 2,000 -540 Descending FlightAware ADS-B (ZSSS / SHA)
11:26PM 31.2981 121.3308 176° South 144 166 1,900 -600 Descending FlightAware ADS-B (ZSSS / SHA)
11:26PM 31.2884 121.3314 177° South 140 161 1,700 -840 Descending FlightAware ADS-B (ZSSS / SHA)
11:27PM 31.2785 121.3318 177° South 135 155 1,500 -600 Descending FlightAware ADS-B (ZSSS / SHA)
11:27PM 31.2695 121.3324 176° South 129 148 1,400 -660 Descending FlightAware ADS-B (ZSSS / SHA)
11:27PM 31.2556 121.3332 176° South 131 151 1,100 -660 Descending FlightAware ADS-B (ZSSS / SHA)
11:28PM 31.2462 121.3337 177° South 134 154 1,000 -600 Descending FlightAware ADS-B (ZSSS / SHA)
11:28PM 31.2368 121.3342 175° South 128 147 800 -840 Descending FlightAware ADS-B (ZSSS / SHA)
11:30PM 31.1979 121.3363 177° South  Level Estimated